createdAt,value
2022-12-18T00:01:30.930Z,102503.50
2022-12-18T00:03:58.225Z,102498.38
2022-12-18T00:06:26.214Z,102511.22
2022-12-18T00:08:53.044Z,102510.59
2022-12-18T00:11:21.395Z,102507.44
2022-12-18T00:13:48.261Z,102514.69
2022-12-18T00:16:21.397Z,102515.69
2022-12-18T00:18:49.543Z,102520.66
2022-12-18T00:21:16.593Z,102516.53
2022-12-18T00:23:47.576Z,102512.91
2022-12-18T00:26:26.619Z,102505.28
2022-12-18T00:28:53.761Z,102507.88
2022-12-18T00:31:23.400Z,102514.13
2022-12-18T00:33:54.133Z,102513.91
2022-12-18T00:36:30.047Z,102518.63
2022-12-18T00:38:58.002Z,102523.56
2022-12-18T00:41:43.759Z,102514.84
2022-12-18T00:44:12.931Z,102513.38
2022-12-18T00:46:39.607Z,102519.31
2022-12-18T00:49:07.842Z,102526.03
2022-12-18T00:51:34.600Z,102530.81
2022-12-18T00:54:01.232Z,102523.00
2022-12-18T00:56:28.093Z,102525.47
2022-12-18T00:58:55.139Z,102528.25
2022-12-18T01:01:22.338Z,102531.41
2022-12-18T01:03:49.174Z,102533.19
2022-12-18T01:06:18.462Z,102532.75
2022-12-18T01:08:48.006Z,102536.75
2022-12-18T01:11:20.035Z,102528.94
2022-12-18T01:13:46.855Z,102540.28
2022-12-18T01:16:14.963Z,102534.53
2022-12-18T01:18:41.660Z,102538.38
2022-12-18T01:21:10.157Z,102536.78
2022-12-18T01:23:37.277Z,102536.69
2022-12-18T01:26:12.443Z,102539.06
2022-12-18T01:28:39.425Z,102548.56
2022-12-18T01:31:19.372Z,102543.50
2022-12-18T01:33:48.945Z,102547.00
2022-12-18T01:36:35.682Z,102552.47
2022-12-18T01:39:07.977Z,102551.72
2022-12-18T01:41:54.196Z,102546.78
2022-12-18T01:44:59.769Z,102551.09
2022-12-18T01:47:51.540Z,102558.03
2022-12-18T01:50:22.844Z,102555.16
2022-12-18T01:52:54.419Z,102562.63
2022-12-18T01:55:24.065Z,102558.16
2022-12-18T01:57:52.479Z,102554.78
2022-12-18T02:00:21.646Z,102556.94
2022-12-18T02:02:49.134Z,102562.09
2022-12-18T02:05:18.105Z,102555.81
2022-12-18T02:08:15.243Z,102564.56
2022-12-18T02:10:46.824Z,102563.44
2022-12-18T02:13:33.978Z,102566.78
2022-12-18T02:16:19.324Z,102572.16
2022-12-18T02:18:50.090Z,102566.25
2022-12-18T02:21:58.564Z,102573.97
2022-12-18T02:24:41.234Z,102566.59
2022-12-18T02:27:08.985Z,102573.53
2022-12-18T02:29:40.551Z,102570.59
2022-12-18T02:32:10.693Z,102565.91
2022-12-18T02:34:39.307Z,102563.41
2022-12-18T02:37:10.497Z,102574.06
2022-12-18T02:39:39.280Z,102571.28
2022-12-18T02:42:09.036Z,102578.44
2022-12-18T02:44:45.153Z,102579.53
2022-12-18T02:47:17.119Z,102574.59
2022-12-18T02:50:03.325Z,102571.22
2022-12-18T02:52:34.651Z,102570.44
2022-12-18T02:55:20.821Z,102580.63
2022-12-18T02:57:51.635Z,102578.72
2022-12-18T03:00:23.957Z,102587.94
2022-12-18T03:02:50.559Z,102585.91
2022-12-18T03:05:18.252Z,102582.22
2022-12-18T03:07:52.904Z,102578.72
2022-12-18T03:10:23.218Z,102576.38
2022-12-18T03:12:55.220Z,102571.63
2022-12-18T03:15:29.693Z,102577.25
2022-12-18T03:18:00.620Z,102577.78
2022-12-18T03:20:28.698Z,102586.19
2022-12-18T03:23:01.264Z,102586.47
2022-12-18T03:25:29.205Z,102581.03
2022-12-18T03:27:58.832Z,102581.16
2022-12-18T03:30:27.228Z,102586.59
2022-12-18T03:33:05.843Z,102592.53
2022-12-18T03:35:35.573Z,102599.25
2022-12-18T03:38:02.325Z,102591.34
2022-12-18T03:40:36.953Z,102583.97
2022-12-18T03:43:10.142Z,102583.59
2022-12-18T03:45:45.075Z,102579.59
2022-12-18T03:48:18.961Z,102580.38
2022-12-18T03:51:01.517Z,102579.66
2022-12-18T03:53:38.807Z,102587.38
2022-12-18T03:56:06.330Z,102588.09
2022-12-18T03:58:34.299Z,102592.06
2022-12-18T04:01:06.402Z,102594.28
2022-12-18T04:03:33.839Z,102597.97
2022-12-18T04:06:01.198Z,102604.63
2022-12-18T04:08:28.177Z,102610.13
2022-12-18T04:10:54.843Z,102611.53
2022-12-18T04:13:28.224Z,102611.81
2022-12-18T04:15:56.597Z,102606.19
2022-12-18T04:18:23.864Z,102596.50
2022-12-18T04:20:50.556Z,102598.28
2022-12-18T04:23:17.569Z,102598.94
2022-12-18T04:25:44.178Z,102601.63
2022-12-18T04:28:10.863Z,102593.69
2022-12-18T04:30:37.578Z,102587.09
2022-12-18T04:33:04.402Z,102584.09
2022-12-18T04:35:31.340Z,102582.06
2022-12-18T04:37:57.973Z,102591.16
2022-12-18T04:40:24.770Z,102592.53
2022-12-18T04:42:51.455Z,102604.63
2022-12-18T04:45:18.488Z,102596.97
2022-12-18T04:47:45.148Z,102602.44
2022-12-18T04:50:11.849Z,102614.34
2022-12-18T04:52:38.484Z,102612.75
2022-12-18T04:55:09.137Z,102622.69
2022-12-18T04:57:39.268Z,102625.38
2022-12-18T05:00:07.172Z,102627.38
2022-12-18T05:02:33.948Z,102640.34
2022-12-18T05:05:00.664Z,102665.59
2022-12-18T05:07:27.302Z,102662.69
2022-12-18T05:09:53.876Z,102657.50
2022-12-18T05:12:20.486Z,102657.28
2022-12-18T05:14:47.116Z,102656.84
2022-12-18T05:17:13.776Z,102651.84
2022-12-18T05:19:40.404Z,102648.22
2022-12-18T05:22:08.021Z,102654.69
2022-12-18T05:24:34.656Z,102664.38
2022-12-18T05:27:01.291Z,102669.88
2022-12-18T05:29:27.945Z,102665.53
2022-12-18T05:31:54.667Z,102671.44
2022-12-18T05:34:21.303Z,102669.38
2022-12-18T05:36:48.023Z,102665.75
2022-12-18T05:39:14.649Z,102675.94
2022-12-18T05:41:41.306Z,102675.00
2022-12-18T05:44:08.419Z,102663.94
2022-12-18T05:46:35.064Z,102665.22
2022-12-18T05:49:02.255Z,102666.78
2022-12-18T05:51:28.986Z,102671.53
2022-12-18T05:53:55.911Z,102666.72
2022-12-18T05:56:23.444Z,102666.50
2022-12-18T05:58:53.873Z,102668.84
2022-12-18T06:01:24.647Z,102676.69
2022-12-18T06:03:51.823Z,102677.72
2022-12-18T06:06:21.685Z,102689.06
2022-12-18T06:08:48.513Z,102688.78
2022-12-18T06:11:22.806Z,102688.50
2022-12-18T06:13:57.891Z,102676.69
2022-12-18T06:16:25.517Z,102681.47
2022-12-18T06:18:52.253Z,102681.81
2022-12-18T06:21:19.092Z,102685.19
2022-12-18T06:23:45.710Z,102691.88
2022-12-18T06:26:13.207Z,102696.75
2022-12-18T06:28:39.861Z,102699.94
2022-12-18T06:31:07.277Z,102706.13
2022-12-18T06:33:34.436Z,102712.19
2022-12-18T06:36:03.094Z,102728.09
2022-12-18T06:38:29.848Z,102737.47
2022-12-18T06:40:56.498Z,102740.44
2022-12-18T06:43:23.115Z,102731.44
2022-12-18T06:45:53.649Z,102717.91
2022-12-18T06:48:21.273Z,102719.22
2022-12-18T06:50:48.073Z,102716.63
2022-12-18T06:53:15.023Z,102714.06
2022-12-18T06:55:41.757Z,102713.19
2022-12-18T06:58:08.553Z,102714.13
2022-12-18T07:00:37.375Z,102703.06
2022-12-18T07:03:04.072Z,102710.34
2022-12-18T07:05:30.745Z,102707.69
2022-12-18T07:07:57.348Z,102706.16
2022-12-18T07:10:23.934Z,102723.22
2022-12-18T07:12:50.520Z,102726.47
2022-12-18T07:15:17.195Z,102728.38
2022-12-18T07:17:43.851Z,102722.09
2022-12-18T07:20:10.976Z,102733.38
2022-12-18T07:22:37.742Z,102731.09
2022-12-18T07:25:04.705Z,102740.59
2022-12-18T07:27:31.463Z,102743.41
2022-12-18T07:29:58.207Z,102755.34
2022-12-18T07:32:24.781Z,102747.91
2022-12-18T07:34:51.406Z,102753.94
2022-12-18T07:37:18.142Z,102761.28
2022-12-18T07:39:45.408Z,102758.56
2022-12-18T07:42:30.978Z,102753.72
2022-12-18T07:44:58.370Z,102752.66
2022-12-18T07:47:25.317Z,102753.19
2022-12-18T07:49:52.350Z,102747.78
2022-12-18T07:52:24.235Z,102755.75
2022-12-18T07:54:52.469Z,102764.47
2022-12-18T07:57:48.367Z,102762.44
2022-12-18T08:00:06.373Z,102764.13
2022-12-18T08:02:33.091Z,102757.28
2022-12-18T08:04:59.827Z,102761.00
2022-12-18T08:07:26.447Z,102754.59
2022-12-18T08:09:53.086Z,102758.44
2022-12-18T08:12:19.707Z,102757.03
2022-12-18T08:14:46.303Z,102756.75
2022-12-18T08:17:12.919Z,102768.34
2022-12-18T08:19:39.543Z,102769.75
2022-12-18T08:22:06.222Z,102775.66
2022-12-18T08:24:32.857Z,102775.63
2022-12-18T08:27:27.722Z,102774.75
2022-12-18T08:29:46.116Z,102775.13
2022-12-18T08:32:12.709Z,102769.59
2022-12-18T08:34:39.401Z,102768.84
2022-12-18T08:37:05.965Z,102786.16
2022-12-18T08:39:32.572Z,102786.44
2022-12-18T08:42:17.983Z,102799.03
2022-12-18T08:44:44.604Z,102796.34
2022-12-18T08:47:11.207Z,102795.06
2022-12-18T08:49:37.817Z,102786.28
2022-12-18T08:52:04.573Z,102785.63
2022-12-18T08:54:31.240Z,102778.31
2022-12-18T08:56:57.868Z,102783.47
2022-12-18T08:59:24.682Z,102790.25
2022-12-18T09:01:51.408Z,102776.50
2022-12-18T09:04:18.237Z,102782.34
2022-12-18T09:06:44.898Z,102778.97
2022-12-18T09:09:12.198Z,102785.56
2022-12-18T09:11:38.800Z,102798.94
2022-12-18T09:14:05.430Z,102801.50
2022-12-18T09:16:35.954Z,102804.72
2022-12-18T09:19:04.573Z,102815.91
2022-12-18T09:21:37.297Z,102804.78
2022-12-18T09:24:05.042Z,102805.88
2022-12-18T09:26:35.159Z,102804.69
2022-12-18T09:29:03.566Z,102806.59
2022-12-18T09:31:30.189Z,102809.72
2022-12-18T09:33:57.621Z,102808.81
2022-12-18T09:36:24.371Z,102809.44
2022-12-18T09:38:51.486Z,102814.72
2022-12-18T09:41:33.388Z,102805.34
2022-12-18T09:44:03.989Z,102810.56
2022-12-18T09:46:34.164Z,102810.56
2022-12-18T09:49:04.176Z,102808.94
2022-12-18T09:51:38.663Z,102811.50
2022-12-18T09:54:21.566Z,102806.47
2022-12-18T09:56:48.913Z,102805.69
2022-12-18T09:59:22.748Z,102801.38
2022-12-18T10:01:49.557Z,102795.34
2022-12-18T10:04:16.394Z,102784.84
2022-12-18T10:07:08.886Z,102778.47
2022-12-18T10:09:44.145Z,102776.56
2022-12-18T10:12:39.605Z,102772.13
2022-12-18T10:15:16.498Z,102774.88
2022-12-18T10:17:53.074Z,102762.66
2022-12-18T10:20:37.979Z,102759.59
2022-12-18T10:23:14.210Z,102757.81
2022-12-18T10:25:55.949Z,102751.56
2022-12-18T10:28:22.987Z,102744.84
2022-12-18T10:30:49.713Z,102744.00
2022-12-18T10:33:19.053Z,102739.00
2022-12-18T10:35:46.725Z,102741.13
2022-12-18T10:38:13.178Z,102754.59
2022-12-18T10:40:55.380Z,102750.91
2022-12-18T10:43:25.196Z,102744.06
2022-12-18T10:46:10.173Z,102742.97
2022-12-18T10:48:40.241Z,102733.13
2022-12-18T10:51:10.816Z,102738.97
2022-12-18T10:53:40.987Z,102734.13
2022-12-18T10:56:07.885Z,102732.78
2022-12-18T10:58:36.764Z,102729.31
2022-12-18T11:01:16.631Z,102733.84
2022-12-18T11:03:48.501Z,102735.69
2022-12-18T11:06:25.205Z,102717.53
2022-12-18T11:09:00.931Z,102738.22
2022-12-18T11:11:27.985Z,102740.69
2022-12-18T11:14:04.838Z,102741.38
2022-12-18T11:16:37.868Z,102739.00
2022-12-18T11:19:35.960Z,102734.41
2022-12-18T11:22:05.182Z,102740.91
2022-12-18T11:24:34.941Z,102745.97
2022-12-18T11:27:04.094Z,102731.28
2022-12-18T11:29:43.352Z,102733.75
2022-12-18T11:32:16.024Z,102733.53
2022-12-18T11:34:46.251Z,102730.59
2022-12-18T11:37:14.462Z,102727.72
2022-12-18T11:39:57.702Z,102730.00
2022-12-18T11:42:59.411Z,102733.03
2022-12-18T11:45:30.471Z,102733.59
2022-12-18T11:48:26.004Z,102731.88
2022-12-18T11:50:55.226Z,102748.00
2022-12-18T11:53:22.231Z,102744.06
2022-12-18T11:56:04.508Z,102758.13
2022-12-18T11:58:47.503Z,102747.34
2022-12-18T12:01:23.369Z,102746.56
2022-12-18T12:04:13.429Z,102752.28
2022-12-18T12:06:49.246Z,102745.44
2022-12-18T12:09:34.442Z,102745.25
2022-12-18T12:12:31.939Z,102757.59
2022-12-18T12:15:45.323Z,102760.59
2022-12-18T12:18:30.065Z,102770.22
2022-12-18T12:21:18.583Z,102772.72
2022-12-18T12:24:13.587Z,102773.50
2022-12-18T12:26:43.507Z,102777.66
2022-12-18T12:29:38.874Z,102771.50
2022-12-18T12:32:25.798Z,102763.00
2022-12-18T12:35:11.541Z,102771.28
2022-12-18T12:38:14.756Z,102774.88
2022-12-18T12:40:56.723Z,102777.34
2022-12-18T12:43:40.403Z,102771.97
2022-12-18T12:46:12.283Z,102775.59
2022-12-18T12:48:57.053Z,102770.06
2022-12-18T12:51:30.063Z,102762.56
2022-12-18T12:53:58.521Z,102757.16
2022-12-18T12:56:30.207Z,102756.84
2022-12-18T12:59:39.297Z,102747.31
2022-12-18T13:02:21.113Z,102747.88
2022-12-18T13:05:03.774Z,102743.28
2022-12-18T13:07:36.137Z,102727.09
2022-12-18T13:10:26.964Z,102724.22
2022-12-18T13:12:57.918Z,102712.31
2022-12-18T13:15:24.795Z,102709.16
2022-12-18T13:18:06.040Z,102717.13
2022-12-18T13:20:37.323Z,102719.50
2022-12-18T13:23:25.901Z,102716.56
2022-12-18T13:25:53.283Z,102723.88
2022-12-18T13:28:25.499Z,102718.81
2022-12-18T13:30:55.080Z,102716.34
2022-12-18T13:33:23.719Z,102723.97
2022-12-18T13:36:01.810Z,102725.75
2022-12-18T13:38:36.677Z,102729.81
2022-12-18T13:41:05.804Z,102725.09
2022-12-18T13:43:37.434Z,102704.81
2022-12-18T13:46:24.861Z,102718.63
2022-12-18T13:48:55.415Z,102706.03
2022-12-18T13:51:23.289Z,102710.75
2022-12-18T13:53:53.445Z,102710.41
2022-12-18T13:56:27.236Z,102709.63
2022-12-18T13:59:25.336Z,102708.38
2022-12-18T14:02:00.646Z,102703.03
2022-12-18T14:04:36.710Z,102703.22
2022-12-18T14:07:21.850Z,102692.25
2022-12-18T14:10:12.266Z,102683.03
2022-12-18T14:13:00.710Z,102692.56
2022-12-18T14:15:35.914Z,102690.56
2022-12-18T14:18:10.031Z,102689.00
2022-12-18T14:20:36.738Z,102683.72
2022-12-18T14:23:03.330Z,102684.47
2022-12-18T14:25:31.133Z,102679.00
2022-12-18T14:28:15.656Z,102665.69
2022-12-18T14:30:43.197Z,102675.53
2022-12-18T14:33:24.683Z,102673.06
2022-12-18T14:36:02.604Z,102660.31
2022-12-18T14:38:37.429Z,102650.31
2022-12-18T14:41:15.011Z,102640.00
2022-12-18T14:43:44.500Z,102636.06
2022-12-18T14:46:38.489Z,102630.91
2022-12-18T14:49:26.149Z,102639.44
2022-12-18T14:51:55.265Z,102640.56
2022-12-18T14:54:23.514Z,102648.63
2022-12-18T14:56:52.541Z,102652.31
2022-12-18T14:59:26.563Z,102649.75
2022-12-18T15:02:06.101Z,102653.09
2022-12-18T15:04:40.179Z,102644.38
2022-12-18T15:07:11.757Z,102650.75
2022-12-18T15:09:40.102Z,102659.50
2022-12-18T15:12:23.838Z,102662.31
2022-12-18T15:14:52.643Z,102661.28
2022-12-18T15:17:22.821Z,102664.88
2022-12-18T15:19:53.301Z,102664.06
2022-12-18T15:22:24.541Z,102674.16
2022-12-18T15:24:51.582Z,102670.38
2022-12-18T15:27:39.688Z,102667.22
2022-12-18T15:30:06.180Z,102669.47
2022-12-18T15:32:33.279Z,102675.97
2022-12-18T15:35:25.031Z,102671.16
2022-12-18T15:37:55.052Z,102668.00
2022-12-18T15:40:23.896Z,102658.50
2022-12-18T15:43:12.436Z,102652.88
2022-12-18T15:45:39.280Z,102648.81
2022-12-18T15:48:19.279Z,102655.13
2022-12-18T15:50:46.027Z,102652.63
2022-12-18T15:53:12.821Z,102652.66
2022-12-18T15:56:01.186Z,102656.81
2022-12-18T15:58:28.156Z,102653.91
2022-12-18T16:00:56.737Z,102645.94
2022-12-18T16:03:23.439Z,102643.66
2022-12-18T16:05:50.296Z,102630.94
2022-12-18T16:08:16.898Z,102636.09
2022-12-18T16:10:43.632Z,102629.56
2022-12-18T16:13:17.180Z,102629.47
2022-12-18T16:15:43.868Z,102644.81
2022-12-18T16:18:10.750Z,102638.53
2022-12-18T16:20:37.606Z,102634.81
2022-12-18T16:23:04.272Z,102633.38
2022-12-18T16:25:31.266Z,102634.63
2022-12-18T16:27:58.162Z,102634.72
2022-12-18T16:30:28.636Z,102633.72
2022-12-18T16:33:00.709Z,102638.31
2022-12-18T16:35:28.109Z,102642.34
2022-12-18T16:37:54.787Z,102640.66
2022-12-18T16:40:21.561Z,102633.63
2022-12-18T16:42:48.205Z,102624.19
2022-12-18T16:45:17.122Z,102619.72
2022-12-18T16:47:44.459Z,102618.13
2022-12-18T16:50:11.050Z,102623.28
2022-12-18T16:52:38.346Z,102622.38
2022-12-18T16:55:05.336Z,102631.16
2022-12-18T16:57:31.956Z,102628.53
2022-12-18T17:00:04.452Z,102630.25
2022-12-18T17:02:32.175Z,102638.53
2022-12-18T17:04:59.393Z,102629.88
2022-12-18T17:07:27.020Z,102638.53
2022-12-18T17:09:54.330Z,102638.31
2022-12-18T17:12:21.429Z,102639.97
2022-12-18T17:14:48.276Z,102646.25
2022-12-18T17:17:23.849Z,102651.28
2022-12-18T17:19:51.857Z,102645.56
2022-12-18T17:22:18.641Z,102644.31
2022-12-18T17:24:47.016Z,102648.13
2022-12-18T17:27:13.656Z,102642.19
2022-12-18T17:29:46.765Z,102644.78
2022-12-18T17:32:14.347Z,102649.72
2022-12-18T17:34:41.027Z,102649.28
2022-12-18T17:37:08.132Z,102645.03
2022-12-18T17:39:34.716Z,102646.72
2022-12-18T17:42:01.359Z,102648.19
2022-12-18T17:44:27.991Z,102646.13
2022-12-18T17:46:54.681Z,102648.97
2022-12-18T17:49:21.691Z,102650.66
2022-12-18T17:51:48.536Z,102649.28
2022-12-18T17:54:15.137Z,102655.13
2022-12-18T17:56:41.761Z,102646.72
2022-12-18T17:59:08.487Z,102633.25
2022-12-18T18:01:38.514Z,102634.72
2022-12-18T18:04:09.285Z,102633.72
2022-12-18T18:06:39.391Z,102625.56
2022-12-18T18:09:13.526Z,102619.03
2022-12-18T18:12:01.951Z,102625.09
2022-12-18T18:14:28.646Z,102613.19
2022-12-18T18:16:57.322Z,102615.09
2022-12-18T18:19:31.208Z,102610.75
2022-12-18T18:21:57.800Z,102606.47
2022-12-18T18:24:25.725Z,102602.91
2022-12-18T18:26:56.500Z,102600.78
2022-12-18T18:29:26.613Z,102594.94
2022-12-18T18:31:54.124Z,102594.47
2022-12-18T18:34:26.085Z,102591.03
2022-12-18T18:36:52.787Z,102577.94
2022-12-18T18:39:19.857Z,102574.88
2022-12-18T18:41:48.026Z,102566.72
2022-12-18T18:44:15.863Z,102555.06
2022-12-18T18:46:42.475Z,102558.63
2022-12-18T18:49:09.681Z,102563.00
2022-12-18T18:51:36.409Z,102551.91
2022-12-18T18:54:03.309Z,102553.59
2022-12-18T18:59:18.200Z,102558.41
2022-12-18T19:01:45.018Z,102553.16
2022-12-18T19:04:11.898Z,102547.88
2022-12-18T19:06:41.581Z,102537.78
2022-12-18T19:09:08.535Z,102532.88
2022-12-18T19:11:53.913Z,102537.56
2022-12-18T19:14:20.969Z,102532.97
2022-12-18T19:16:47.755Z,102533.19
2022-12-18T19:19:14.977Z,102537.69
2022-12-18T19:21:41.753Z,102529.84
2022-12-18T19:24:10.260Z,102532.97
2022-12-18T19:26:37.653Z,102512.59
2022-12-18T19:29:06.039Z,102512.38
2022-12-18T19:31:36.040Z,102502.19
2022-12-18T19:34:05.133Z,102501.38
2022-12-18T19:36:32.609Z,102503.84
2022-12-18T19:39:01.122Z,102502.19
2022-12-18T19:41:31.345Z,102496.03
2022-12-18T19:44:05.184Z,102496.72
2022-12-18T19:46:35.538Z,102493.56
2022-12-18T19:49:02.505Z,102483.00
2022-12-18T19:51:30.696Z,102483.59
2022-12-18T19:54:01.074Z,102479.78
2022-12-18T19:56:30.397Z,102473.84
2022-12-18T19:58:57.045Z,102466.59
2022-12-18T20:01:24.747Z,102471.75
2022-12-18T20:03:52.927Z,102456.28
2022-12-18T20:06:26.731Z,102451.91
2022-12-18T20:09:00.267Z,102457.72
2022-12-18T20:11:27.841Z,102457.59
2022-12-18T20:13:54.657Z,102456.59
2022-12-18T20:16:21.474Z,102456.94
2022-12-18T20:18:49.207Z,102452.03
2022-12-18T20:21:16.280Z,102461.97
2022-12-18T20:23:43.629Z,102479.69
2022-12-18T20:26:10.654Z,102470.94
2022-12-18T20:28:37.256Z,102466.22
2022-12-18T20:31:08.460Z,102469.25
2022-12-18T20:33:37.357Z,102464.00
2022-12-18T20:36:06.378Z,102455.16
2022-12-18T20:38:38.743Z,102461.44
2022-12-18T20:41:15.354Z,102452.81
2022-12-18T20:43:42.761Z,102451.69
2022-12-18T20:46:10.716Z,102448.00
2022-12-18T20:48:41.111Z,102450.91
2022-12-18T20:51:10.099Z,102431.97
2022-12-18T20:53:37.423Z,102444.97
2022-12-18T20:56:08.326Z,102440.38
2022-12-18T20:58:35.710Z,102439.59
2022-12-18T21:01:08.170Z,102435.91
2022-12-18T21:03:39.234Z,102445.19
2022-12-18T21:06:06.499Z,102440.03
2022-12-18T21:08:33.261Z,102438.81
2022-12-18T21:11:36.156Z,102431.53
2022-12-18T21:14:03.690Z,102432.66
2022-12-18T21:16:30.398Z,102426.19
2022-12-18T21:18:57.035Z,102430.06
2022-12-18T21:21:26.552Z,102420.34
2022-12-18T21:23:53.676Z,102410.06
2022-12-18T21:26:25.357Z,102413.75
2022-12-18T21:29:02.850Z,102420.25
2022-12-18T21:31:37.214Z,102424.47
2022-12-18T21:34:05.500Z,102423.59
2022-12-18T21:36:32.911Z,102426.19
2022-12-18T21:38:59.951Z,102422.13
2022-12-18T21:41:46.280Z,102430.13
2022-12-18T21:44:15.219Z,102416.34
2022-12-18T21:46:44.284Z,102411.06
2022-12-18T21:49:12.517Z,102404.69
2022-12-18T21:51:39.446Z,102423.59
2022-12-18T21:54:06.689Z,102419.13
2022-12-18T21:56:44.372Z,102405.59
2022-12-18T21:59:13.207Z,102409.16
2022-12-18T22:01:40.270Z,102406.44
2022-12-18T22:04:06.972Z,102393.72
2022-12-18T22:06:33.847Z,102396.09
2022-12-18T22:09:00.566Z,102385.88
2022-12-18T22:11:27.178Z,102407.16
2022-12-18T22:13:54.043Z,102399.66
2022-12-18T22:16:20.704Z,102385.69
2022-12-18T22:18:50.816Z,102395.09
2022-12-18T22:21:29.609Z,102380.06
2022-12-18T22:24:00.880Z,102373.56
2022-12-18T22:26:28.698Z,102368.50
2022-12-18T22:29:14.523Z,102370.47
2022-12-18T22:31:41.610Z,102360.13
2022-12-18T22:34:09.004Z,102360.06
2022-12-18T22:36:54.185Z,102351.44
2022-12-18T22:39:23.738Z,102358.69
2022-12-18T22:41:51.070Z,102346.25
2022-12-18T22:44:18.073Z,102333.94
2022-12-18T22:46:52.229Z,102329.59
2022-12-18T22:49:35.677Z,102329.69
2022-12-18T22:52:09.391Z,102318.06
2022-12-18T22:54:36.218Z,102317.63
2022-12-18T22:57:02.856Z,102306.59
2022-12-18T22:59:30.158Z,102302.69
2022-12-18T23:01:59.218Z,102299.88
2022-12-18T23:04:36.246Z,102304.53
2022-12-18T23:07:05.101Z,102296.34
2022-12-18T23:09:32.388Z,102292.66
2022-12-18T23:11:59.070Z,102296.03
2022-12-18T23:14:27.200Z,102290.13
2022-12-18T23:16:53.935Z,102290.19
2022-12-18T23:19:21.091Z,102294.00
2022-12-18T23:21:50.056Z,102289.31
2022-12-18T23:24:16.950Z,102277.91
2022-12-18T23:26:43.532Z,102273.88
2022-12-18T23:29:10.160Z,102281.47
2022-12-18T23:31:38.631Z,102267.03
2022-12-18T23:34:06.361Z,102263.38
2022-12-18T23:36:45.334Z,102255.75
2022-12-18T23:39:15.603Z,102259.75
2022-12-18T23:41:56.693Z,102266.31
2022-12-18T23:44:23.433Z,102250.81
2022-12-18T23:46:50.327Z,102241.31
2022-12-18T23:49:17.808Z,102237.59
2022-12-18T23:51:44.475Z,102236.25
2022-12-18T23:54:22.686Z,102225.16
2022-12-18T23:56:59.982Z,102216.47
2022-12-18T23:59:26.601Z,102210.69
